createdAt,value
2019-04-23T00:02:26.629Z,16.10
2019-04-23T00:04:48.131Z,16.00
2019-04-23T00:07:35.546Z,16.00
2019-04-23T00:09:57.152Z,15.90
2019-04-23T00:12:38.445Z,15.90
2019-04-23T00:15:04.883Z,15.90
2019-04-23T00:17:32.015Z,15.90
2019-04-23T00:20:06.739Z,15.90
2019-04-23T00:22:51.773Z,15.80
2019-04-23T00:28:10.093Z,15.70
2019-04-23T00:30:42.843Z,15.70
2019-04-23T00:33:05.859Z,15.70
2019-04-23T00:35:38.882Z,15.60
2019-04-23T00:38:11.887Z,15.50
2019-04-23T00:40:40.672Z,15.50
2019-04-23T00:43:08.964Z,15.50
2019-04-23T00:45:41.124Z,15.50
2019-04-23T00:48:12.733Z,15.40
2019-04-23T00:50:44.942Z,15.40
2019-04-23T00:53:13.793Z,15.30
2019-04-23T00:55:46.561Z,15.30
2019-04-23T00:58:12.840Z,15.30
2019-04-23T01:00:41.861Z,15.20
2019-04-23T01:03:15.399Z,15.20
2019-04-23T01:05:52.213Z,15.20
2019-04-23T01:08:16.490Z,15.10
2019-04-23T01:10:56.292Z,15.10
2019-04-23T01:15:59.544Z,15.10
2019-04-23T01:20:53.482Z,15.00
2019-04-23T01:23:20.637Z,14.90
2019-04-23T01:26:00.261Z,14.90
2019-04-23T01:28:49.653Z,14.90
2019-04-23T01:33:51.789Z,14.80
2019-04-23T01:38:55.967Z,14.70
2019-04-23T01:41:20.630Z,14.70
2019-04-23T01:43:47.842Z,14.70
2019-04-23T01:46:21.724Z,14.70
2019-04-23T01:51:20.102Z,14.70
2019-04-23T01:56:22.959Z,14.80
2019-04-23T01:58:57.381Z,14.80
2019-04-23T02:01:20.754Z,14.80
2019-04-23T02:03:57.685Z,14.70
2019-04-23T02:06:22.037Z,14.50
2019-04-23T02:08:56.359Z,14.50
2019-04-23T02:11:16.440Z,14.60
2019-04-23T02:14:00.242Z,14.60
2019-04-23T02:16:25.870Z,14.50
2019-04-23T02:21:25.502Z,14.40
2019-04-23T02:23:55.630Z,14.40
2019-04-23T02:26:36.910Z,14.40
2019-04-23T02:31:46.618Z,14.30
2019-04-23T02:34:00.470Z,14.30
2019-04-23T02:36:32.377Z,14.20
2019-04-23T02:44:16.610Z,14.10
2019-04-23T02:46:51.654Z,14.00
2019-04-23T02:49:07.109Z,14.00
2019-04-23T02:51:36.442Z,14.00
2019-04-23T02:56:37.974Z,14.00
2019-04-23T02:59:10.777Z,13.90
2019-04-23T03:06:42.332Z,13.90
2019-04-23T03:09:06.389Z,13.90
2019-04-23T03:14:07.490Z,13.90
2019-04-23T03:19:37.989Z,13.90
2019-04-23T03:47:20.682Z,13.70
2019-04-23T03:49:46.270Z,13.70
2019-04-23T03:52:21.296Z,13.60
2019-04-23T03:57:18.529Z,13.60
2019-04-23T04:00:04.032Z,13.60
2019-04-23T04:02:30.673Z,13.60
2019-04-23T04:04:36.553Z,13.60
2019-04-23T04:07:18.469Z,13.60
2019-04-23T04:14:57.607Z,13.60
2019-04-23T04:17:19.512Z,13.60
2019-04-23T04:24:48.724Z,13.50
2019-04-23T04:32:11.897Z,13.60
2019-04-23T04:39:53.202Z,13.60
2019-04-23T04:44:47.871Z,13.40
2019-04-23T04:47:27.959Z,13.40
2019-04-23T04:49:55.662Z,13.40
2019-04-23T04:54:39.364Z,13.50
2019-04-23T04:57:30.657Z,13.40
2019-04-23T05:02:31.973Z,13.40
2019-04-23T05:07:28.299Z,13.40
2019-04-23T05:10:05.880Z,13.40
2019-04-23T05:12:22.981Z,13.40
2019-04-23T05:17:59.909Z,13.20
2019-04-23T05:20:12.545Z,13.10
2019-04-23T05:25:05.466Z,13.30
2019-04-23T05:27:47.186Z,13.40
2019-04-23T05:30:15.538Z,13.40
2019-04-23T05:32:45.167Z,13.50
2019-04-23T05:35:10.074Z,13.60
2019-04-23T05:37:53.747Z,13.60
2019-04-23T05:40:21.433Z,13.70
2019-04-23T05:42:43.077Z,13.80
2019-04-23T05:45:09.701Z,13.80
2019-04-23T05:47:32.571Z,13.90
2019-04-23T05:55:08.804Z,14.10
2019-04-23T05:57:39.128Z,14.10
2019-04-23T06:00:07.653Z,14.20
2019-04-23T06:02:46.024Z,14.30
2019-04-23T06:05:08.858Z,14.80
2019-04-23T06:07:45.636Z,15.30
2019-04-23T06:10:14.983Z,15.70
2019-04-23T06:12:39.956Z,15.90
2019-04-23T06:15:11.472Z,15.90
2019-04-23T06:17:39.282Z,15.90
2019-04-23T06:22:45.960Z,16.00
2019-04-23T06:25:24.842Z,16.50
2019-04-23T06:27:39.625Z,17.20
2019-04-23T06:30:37.156Z,17.30
2019-04-23T06:32:44.872Z,17.50
2019-04-23T06:35:11.707Z,17.50
2019-04-23T06:38:04.803Z,17.40
2019-04-23T06:40:15.822Z,17.40
2019-04-23T06:43:04.997Z,17.10
2019-04-23T06:45:34.193Z,16.90
2019-04-23T06:48:09.137Z,16.60
2019-04-23T06:50:35.417Z,16.30
2019-04-23T06:53:02.463Z,16.20
2019-04-23T06:55:37.410Z,16.00
2019-04-23T06:58:12.293Z,16.00
2019-04-23T07:00:42.111Z,16.00
2019-04-23T07:03:14.953Z,16.00
2019-04-23T07:06:12.111Z,16.10
2019-04-23T07:08:43.057Z,16.20
2019-04-23T07:11:11.506Z,16.20
2019-04-23T07:13:44.649Z,16.20
2019-04-23T07:16:03.218Z,16.20
2019-04-23T07:18:35.894Z,15.90
2019-04-23T07:21:06.767Z,16.00
2019-04-23T07:23:41.689Z,16.30
2019-04-23T07:26:15.522Z,16.60
2019-04-23T07:28:47.993Z,16.90
2019-04-23T07:31:14.118Z,17.10
2019-04-23T07:33:45.902Z,17.20
2019-04-23T07:36:13.829Z,17.20
2019-04-23T07:39:01.489Z,17.20
2019-04-23T07:41:43.280Z,17.20
2019-04-23T07:44:42.560Z,17.20
2019-04-23T07:47:11.231Z,17.20
2019-04-23T07:49:30.906Z,17.10
2019-04-23T07:52:13.296Z,17.10
2019-04-23T07:57:09.239Z,17.50
2019-04-23T07:59:39.061Z,18.00
2019-04-23T08:02:10.985Z,18.70
2019-04-23T08:04:35.589Z,19.40
2019-04-23T08:07:01.192Z,20.00
2019-04-23T08:09:43.690Z,20.30
2019-04-23T08:12:13.779Z,20.80
2019-04-23T08:14:40.384Z,21.10
2019-04-23T08:17:07.358Z,21.10
2019-04-23T08:19:40.959Z,21.40
2019-04-23T08:24:52.119Z,21.60
2019-04-23T08:27:18.289Z,21.60
2019-04-23T08:29:47.771Z,21.50
2019-04-23T08:32:18.692Z,21.40
2019-04-23T08:34:58.823Z,21.10
2019-04-23T08:37:45.201Z,21.10
2019-04-23T08:40:11.016Z,20.90
2019-04-23T08:45:18.700Z,20.70
2019-04-23T08:47:42.274Z,20.80
2019-04-23T08:50:15.388Z,20.80
2019-04-23T08:52:44.073Z,20.80
2019-04-23T08:55:13.659Z,20.90
2019-04-23T08:57:44.067Z,20.90
2019-04-23T09:00:17.713Z,21.00
2019-04-23T09:02:54.051Z,21.10
2019-04-23T09:05:20.795Z,20.90
2019-04-23T09:07:55.274Z,20.80
2019-04-23T09:10:20.855Z,21.00
2019-04-23T09:13:28.185Z,21.10
2019-04-23T09:15:23.946Z,21.20
2019-04-23T09:17:57.854Z,21.30
2019-04-23T09:22:46.553Z,21.30
2019-04-23T09:25:30.049Z,21.40
2019-04-23T09:27:44.225Z,21.30
2019-04-23T09:30:22.858Z,21.10
2019-04-23T09:32:51.598Z,21.10
2019-04-23T09:35:26.038Z,21.20
2019-04-23T09:38:17.783Z,21.30
2019-04-23T09:41:04.361Z,21.30
2019-04-23T09:43:27.035Z,21.40
2019-04-23T09:46:10.467Z,21.40
2019-04-23T09:48:29.934Z,21.40
2019-04-23T09:55:51.474Z,21.20
2019-04-23T09:58:23.836Z,21.00
2019-04-23T10:01:23.572Z,20.80
2019-04-23T10:03:38.974Z,20.80
2019-04-23T10:06:03.392Z,20.80
2019-04-23T10:08:29.618Z,20.80
2019-04-23T10:10:55.620Z,20.80
2019-04-23T10:13:26.142Z,20.60
2019-04-23T10:15:55.549Z,20.40
2019-04-23T10:18:24.663Z,20.30
2019-04-23T10:20:54.324Z,20.20
2019-04-23T10:23:23.234Z,20.20
2019-04-23T10:25:52.281Z,20.20
2019-04-23T10:28:31.761Z,20.30
2019-04-23T10:31:00.706Z,20.40
2019-04-23T10:33:29.627Z,20.50
2019-04-23T10:36:04.369Z,20.60
2019-04-23T10:38:30.203Z,20.70
2019-04-23T10:41:00.164Z,20.80
2019-04-23T10:43:30.950Z,20.90
2019-04-23T10:46:26.895Z,21.00
2019-04-23T10:52:07.077Z,21.00
2019-04-23T10:56:59.063Z,21.00
2019-04-23T10:59:38.841Z,21.00
2019-04-23T11:02:28.922Z,20.90
2019-04-23T11:07:32.470Z,21.00
2019-04-23T11:10:15.662Z,21.10
2019-04-23T11:15:24.609Z,21.10
2019-04-23T11:22:46.518Z,21.10
2019-04-23T11:25:20.467Z,21.10
2019-04-23T11:27:46.986Z,21.20
2019-04-23T11:30:33.558Z,21.20
2019-04-23T11:35:22.615Z,21.20
2019-04-23T11:40:17.397Z,21.30
2019-04-23T11:42:54.540Z,21.40
2019-04-23T11:45:26.043Z,21.40
2019-04-23T11:50:24.390Z,21.50
2019-04-23T11:55:29.300Z,21.50
2019-04-23T12:00:28.486Z,21.70
2019-04-23T12:03:02.632Z,21.70
2019-04-23T12:06:03.684Z,21.80
2019-04-23T12:08:37.838Z,21.70
2019-04-23T12:11:36.134Z,21.60
2019-04-23T12:13:45.283Z,21.50
2019-04-23T12:16:13.229Z,21.40
2019-04-23T12:18:38.728Z,21.30
2019-04-23T12:21:28.418Z,21.30
2019-04-23T12:24:04.332Z,21.30
2019-04-23T12:26:35.428Z,21.20
2019-04-23T12:31:26.678Z,21.20
2019-04-23T12:33:57.576Z,21.10
2019-04-23T12:36:36.947Z,21.10
2019-04-23T12:39:04.337Z,21.10
2019-04-23T12:41:41.062Z,21.10
2019-04-23T12:44:09.217Z,21.10
2019-04-23T12:46:38.141Z,21.10
2019-04-23T12:49:30.382Z,21.10
2019-04-23T12:51:41.534Z,21.00
2019-04-23T12:54:07.637Z,21.00
2019-04-23T12:56:48.697Z,21.00
2019-04-23T12:58:55.936Z,21.10
2019-04-23T13:01:47.122Z,21.20
2019-04-23T13:03:59.415Z,21.30
2019-04-23T13:06:28.144Z,21.40
2019-04-23T13:09:19.448Z,21.50
2019-04-23T13:11:38.342Z,21.60
2019-04-23T13:14:08.897Z,21.60
2019-04-23T13:19:14.694Z,21.60
2019-04-23T13:24:10.935Z,21.50
2019-04-23T13:26:37.980Z,21.50
2019-04-23T13:29:11.114Z,21.40
2019-04-23T13:31:35.799Z,21.40
2019-04-23T13:34:13.491Z,21.50
2019-04-23T13:39:10.565Z,21.50
2019-04-23T13:41:52.525Z,21.50
2019-04-23T13:44:08.427Z,21.50
2019-04-23T13:46:36.458Z,21.50
2019-04-23T13:49:07.490Z,21.40
2019-04-23T13:51:39.466Z,21.40
2019-04-23T13:54:17.005Z,21.40
2019-04-23T13:57:13.045Z,21.40
2019-04-23T13:59:21.738Z,21.40
2019-04-23T14:02:09.007Z,21.40
2019-04-23T14:04:33.438Z,21.50
2019-04-23T14:06:51.961Z,21.50
2019-04-23T14:09:32.491Z,21.40
2019-04-23T14:11:46.742Z,21.40
2019-04-23T14:14:39.308Z,21.40
2019-04-23T14:17:02.602Z,21.40
2019-04-23T14:19:16.492Z,21.40
2019-04-23T14:21:51.817Z,21.30
2019-04-23T14:24:32.612Z,21.30
2019-04-23T14:27:00.796Z,21.30
2019-04-23T14:29:28.485Z,21.30
2019-04-23T14:32:05.202Z,21.30
2019-04-23T14:34:29.294Z,21.20
2019-04-23T14:37:11.909Z,21.20
2019-04-23T14:39:24.390Z,21.20
2019-04-23T14:42:12.268Z,21.10
2019-04-23T14:44:56.672Z,21.10
2019-04-23T14:47:07.071Z,21.00
2019-04-23T14:49:41.031Z,21.00
2019-04-23T14:52:06.632Z,21.00
2019-04-23T14:55:19.877Z,21.00
2019-04-23T14:57:20.941Z,21.00
2019-04-23T14:59:37.714Z,21.00
2019-04-23T15:02:23.125Z,21.10
2019-04-23T15:04:51.159Z,21.20
2019-04-23T15:07:17.014Z,21.20
2019-04-23T15:12:23.533Z,21.30
2019-04-23T15:14:57.487Z,21.30
2019-04-23T15:17:13.128Z,21.40
2019-04-23T15:19:55.179Z,21.40
2019-04-23T15:22:20.281Z,21.30
2019-04-23T15:29:42.586Z,21.40
2019-04-23T15:32:29.923Z,21.40
2019-04-23T15:35:01.038Z,21.40
2019-04-23T15:39:55.071Z,21.50
2019-04-23T15:42:26.055Z,21.50
2019-04-23T15:44:57.355Z,21.50
2019-04-23T15:47:24.959Z,21.50
2019-04-23T15:49:59.206Z,21.50
2019-04-23T15:52:30.257Z,21.50
2019-04-23T15:54:55.299Z,21.60
2019-04-23T15:57:41.840Z,21.60
2019-04-23T15:59:55.934Z,21.70
2019-04-23T16:01:56.986Z,21.70
2019-04-23T16:04:25.393Z,21.70
2019-04-23T16:06:54.074Z,21.70
2019-04-23T16:09:54.105Z,21.60
2019-04-23T16:12:17.774Z,21.60
2019-04-23T16:15:13.225Z,21.50
2019-04-23T16:20:06.176Z,21.50
2019-04-23T16:22:25.335Z,21.40
2019-04-23T16:25:58.119Z,21.30
2019-04-23T16:27:20.236Z,21.30
2019-04-23T16:30:12.940Z,21.20
2019-04-23T16:32:52.595Z,21.20
2019-04-23T16:35:29.365Z,21.20
2019-04-23T16:37:50.007Z,21.10
2019-04-23T16:40:24.002Z,21.10
2019-04-23T16:42:47.856Z,21.10
2019-04-23T16:47:52.295Z,21.00
2019-04-23T16:50:19.421Z,21.00
2019-04-23T16:52:53.632Z,21.00
2019-04-23T16:55:23.794Z,20.90
2019-04-23T16:57:59.802Z,20.80
2019-04-23T17:02:59.762Z,20.90
2019-04-23T17:08:00.215Z,20.90
2019-04-23T17:10:19.116Z,20.90
2019-04-23T17:12:59.726Z,20.80
2019-04-23T17:15:27.584Z,20.90
2019-04-23T17:17:47.867Z,20.90
2019-04-23T17:20:28.674Z,20.90
2019-04-23T17:23:00.139Z,20.90
2019-04-23T17:25:25.889Z,20.90
2019-04-23T17:27:54.458Z,20.80
2019-04-23T17:33:04.067Z,20.80
2019-04-23T17:35:31.604Z,20.80
2019-04-23T17:38:00.738Z,20.80
2019-04-23T17:40:23.340Z,20.70
2019-04-23T17:43:05.995Z,20.70
2019-04-23T17:48:21.726Z,20.70
2019-04-23T17:51:06.069Z,20.70
2019-04-23T17:53:29.792Z,20.60
2019-04-23T17:58:34.191Z,20.60
2019-04-23T18:01:17.718Z,20.60
2019-04-23T18:03:39.986Z,20.50
2019-04-23T18:06:32.139Z,20.50
2019-04-23T18:08:34.616Z,20.50
2019-04-23T18:11:12.769Z,20.40
2019-04-23T18:13:45.682Z,20.40
2019-04-23T18:16:30.587Z,20.40
2019-04-23T18:18:46.349Z,20.30
2019-04-23T18:21:29.514Z,20.30
2019-04-23T18:26:05.447Z,20.30
2019-04-23T18:28:40.638Z,20.20
2019-04-23T18:31:12.749Z,20.20
2019-04-23T18:36:13.514Z,20.10
2019-04-23T18:38:46.371Z,20.10
2019-04-23T18:41:27.575Z,20.10
2019-04-23T18:43:42.911Z,20.10
2019-04-23T18:51:10.371Z,20.00
2019-04-23T18:53:48.440Z,19.90
2019-04-23T18:56:20.813Z,19.90
2019-04-23T18:58:54.727Z,19.80
2019-04-23T19:01:25.881Z,19.80
2019-04-23T19:09:12.165Z,19.70
2019-04-23T19:11:51.658Z,19.60
2019-04-23T19:14:18.795Z,19.70
2019-04-23T19:16:53.462Z,19.70
2019-04-23T19:22:09.213Z,19.70
2019-04-23T19:24:13.788Z,19.60
2019-04-23T19:27:03.356Z,19.60
2019-04-23T19:29:21.228Z,19.50
2019-04-23T19:31:57.018Z,19.50
2019-04-23T19:44:34.658Z,19.30
2019-04-23T19:49:35.799Z,19.30
2019-04-23T19:51:59.182Z,19.30
2019-04-23T19:59:39.803Z,19.30
2019-04-23T20:02:17.355Z,19.30
2019-04-23T20:07:16.033Z,19.30
2019-04-23T20:09:44.113Z,19.20
2019-04-23T20:12:01.078Z,19.20
2019-04-23T20:17:26.316Z,19.20
2019-04-23T20:22:09.226Z,19.10
2019-04-23T20:24:47.236Z,19.10
2019-04-23T20:30:05.234Z,19.10
2019-04-23T20:32:57.262Z,19.10
2019-04-23T20:34:56.355Z,19.10
2019-04-23T20:37:25.776Z,19.10
2019-04-23T20:39:50.799Z,19.00
2019-04-23T20:42:18.063Z,19.00
2019-04-23T20:47:24.403Z,19.00
2019-04-23T20:52:33.987Z,19.00
2019-04-23T20:57:50.240Z,18.90
2019-04-23T21:00:12.366Z,18.90
2019-04-23T21:28:04.721Z,18.40
2019-04-23T21:33:21.466Z,18.20
2019-04-23T21:39:12.141Z,18.20
2019-04-23T21:41:33.268Z,18.20
2019-04-23T21:44:10.320Z,18.10
2019-04-23T21:46:38.247Z,18.10
2019-04-23T21:53:56.802Z,18.10
2019-04-23T21:56:33.175Z,18.00
2019-04-23T22:06:35.558Z,18.00
2019-04-23T22:09:08.720Z,18.00
2019-04-23T22:11:48.210Z,18.00
2019-04-23T22:16:41.658Z,18.00
2019-04-23T22:19:10.213Z,18.00
2019-04-23T22:21:41.145Z,18.00
2019-04-23T22:24:08.764Z,18.00
2019-04-23T22:26:34.747Z,18.00
2019-04-23T22:29:18.506Z,18.00
2019-04-23T22:31:38.779Z,18.00
2019-04-23T22:36:55.185Z,17.90
2019-04-23T22:39:03.151Z,17.80
2019-04-23T22:41:43.731Z,17.80
2019-04-23T22:44:14.405Z,17.70
2019-04-23T22:46:51.117Z,17.70
2019-04-23T22:51:47.605Z,17.70
2019-04-23T22:54:09.547Z,17.70
2019-04-23T22:56:45.137Z,17.60
2019-04-23T22:59:21.904Z,17.60
2019-04-23T23:01:59.241Z,17.50
2019-04-23T23:04:13.671Z,17.40
2019-04-23T23:11:49.350Z,17.30
2019-04-23T23:16:45.002Z,17.30
2019-04-23T23:22:07.798Z,17.20
2019-04-23T23:24:15.013Z,17.20
2019-04-23T23:26:49.975Z,17.20
2019-04-23T23:29:12.365Z,17.10
2019-04-23T23:31:54.187Z,17.10
2019-04-23T23:34:22.851Z,17.10
2019-04-23T23:41:48.995Z,17.10
2019-04-23T23:49:20.347Z,17.00
2019-04-23T23:51:44.800Z,17.00
2019-04-23T23:54:13.563Z,16.90
2019-04-23T23:57:01.776Z,16.90
2019-04-23T23:59:39.680Z,16.80
